メインページ
METAR-TAF:

METAR-TAF

空港 :

ウィニペグ, マニトバ州, カナダ

ウィニペグ・ジェームス・アームストロング・リチャードソン国際空港

緯度: 49-54N, 経度: 097-14W, 海抜: 239m

現時点の気象観測

当レポートは1時間8分前の21:00(UTC)に作成
無風
気温 -16°C
湿度 46%
気圧 1026 hPa
視程: 24.1km
高度20000ftの千切れ雲あり

METAR: CYWG 192100Z 00000KT 15SM BKN200 M16/M25 A3029 RMK CS6 SLP287

時間: 16:08 (22:08 UTC)

予報

当レポートは4時間30分前の17:38(UTC)に作成
予報は19日の 18時(UTC)から 20日の 18時(UTC)まで有効
変向風 3kt
視程: 10km
高度24000ftの雲は散在している
19日の 18時(UTC)から 19日の 20時(UTC)まで徐々に
北東の風 8kt
20日の 0400時(UTC)から
北/北東の風 6kt
視程: 10km
高度10000ftの千切れ雲あり
20日の 1000時(UTC)から
北西の風 7kt
視程: 10km
高度7000ftの千切れ雲あり

TAF: CYWG 191738Z 1918/2018 VRB03KT P6SM SCT240 BECMG 1918/1920 04008KT FM200400 03006KT P6SM BKN100 FM201000 32007KT P6SM BKN070 RMK NXT FCST BY 200000Z

4,000以上の空港の気象観測と天気予報(METAR報とTAF報)

利用可能な観測所は地図上に黄色い丸と赤い丸で示す。

丸の上にカーソルを重ねると観測所名を参照できる。

次にクリックすると気象観測と天気予報を参照できる。

マップの切り替え:黒色「×」印の緑ボタンをクリックして拡大、「-」印の緑ボタンをクリックして縮小、緑色の三角印をクリックして隣りの地図に切り替え


METAR-TAF: